sensor_id;sensor_type;location;lat;lon;timestamp;P1;durP1;ratioP1;P2;durP2;ratioP2
62687;SDS011;48752;51.056;17.056;2022-11-24T00:00:48;114.82;;;44.88;;
62687;SDS011;48752;51.056;17.056;2022-11-24T00:03:14;104.28;;;44.00;;
62687;SDS011;48752;51.056;17.056;2022-11-24T00:05:39;114.00;;;44.05;;
62687;SDS011;48752;51.056;17.056;2022-11-24T00:08:04;93.70;;;41.67;;
62687;SDS011;48752;51.056;17.056;2022-11-24T00:10:30;100.53;;;42.53;;
62687;SDS011;48752;51.056;17.056;2022-11-24T00:12:55;104.82;;;43.78;;
62687;SDS011;48752;51.056;17.056;2022-11-24T00:15:20;103.78;;;42.28;;
62687;SDS011;48752;51.056;17.056;2022-11-24T00:17:46;98.90;;;41.20;;
62687;SDS011;48752;51.056;17.056;2022-11-24T00:20:11;99.75;;;40.83;;
62687;SDS011;48752;51.056;17.056;2022-11-24T00:22:37;98.05;;;42.10;;
62687;SDS011;48752;51.056;17.056;2022-11-24T00:25:02;87.07;;;40.17;;
62687;SDS011;48752;51.056;17.056;2022-11-24T00:27:28;93.88;;;40.53;;
62687;SDS011;48752;51.056;17.056;2022-11-24T00:29:53;93.95;;;41.28;;
62687;SDS011;48752;51.056;17.056;2022-11-24T00:32:18;88.43;;;39.85;;
62687;SDS011;48752;51.056;17.056;2022-11-24T00:34:44;94.65;;;43.13;;
62687;SDS011;48752;51.056;17.056;2022-11-24T00:37:09;93.30;;;40.40;;
62687;SDS011;48752;51.056;17.056;2022-11-24T00:39:34;104.32;;;44.70;;
62687;SDS011;48752;51.056;17.056;2022-11-24T00:42:00;101.60;;;42.63;;
62687;SDS011;48752;51.056;17.056;2022-11-24T00:44:26;100.60;;;44.53;;
62687;SDS011;48752;51.056;17.056;2022-11-24T00:46:51;109.65;;;45.17;;
62687;SDS011;48752;51.056;17.056;2022-11-24T00:49:16;97.25;;;41.13;;
62687;SDS011;48752;51.056;17.056;2022-11-24T00:51:41;96.88;;;41.83;;
62687;SDS011;48752;51.056;17.056;2022-11-24T00:54:07;90.53;;;40.25;;
62687;SDS011;48752;51.056;17.056;2022-11-24T00:56:32;96.00;;;41.00;;
62687;SDS011;48752;51.056;17.056;2022-11-24T00:58:58;94.65;;;39.63;;
62687;SDS011;48752;51.056;17.056;2022-11-24T01:01:25;93.55;;;39.75;;
62687;SDS011;48752;51.056;17.056;2022-11-24T01:03:52;94.45;;;38.72;;
62687;SDS011;48752;51.056;17.056;2022-11-24T01:06:20;96.07;;;41.25;;
62687;SDS011;48752;51.056;17.056;2022-11-24T01:08:47;106.97;;;44.03;;
62687;SDS011;48752;51.056;17.056;2022-11-24T01:11:14;99.50;;;43.67;;
62687;SDS011;48752;51.056;17.056;2022-11-24T01:13:44;99.32;;;45.10;;
62687;SDS011;48752;51.056;17.056;2022-11-24T01:16:14;100.22;;;44.20;;
62687;SDS011;48752;51.056;17.056;2022-11-24T01:18:50;98.13;;;45.55;;
62687;SDS011;48752;51.056;17.056;2022-11-24T01:21:16;99.22;;;43.35;;
62687;SDS011;48752;51.056;17.056;2022-11-24T01:23:42;107.10;;;45.80;;
62687;SDS011;48752;51.056;17.056;2022-11-24T01:26:08;101.05;;;44.08;;
62687;SDS011;48752;51.056;17.056;2022-11-24T01:28:35;105.25;;;44.42;;
62687;SDS011;48752;51.056;17.056;2022-11-24T01:31:02;95.85;;;42.63;;
62687;SDS011;48752;51.056;17.056;2022-11-24T01:33:28;99.53;;;43.80;;
62687;SDS011;48752;51.056;17.056;2022-11-24T01:35:55;96.40;;;43.60;;
62687;SDS011;48752;51.056;17.056;2022-11-24T01:38:21;89.18;;;40.72;;
62687;SDS011;48752;51.056;17.056;2022-11-24T01:40:46;103.72;;;41.38;;
62687;SDS011;48752;51.056;17.056;2022-11-24T01:43:19;97.32;;;41.83;;
62687;SDS011;48752;51.056;17.056;2022-11-24T01:45:45;101.72;;;41.58;;
62687;SDS011;48752;51.056;17.056;2022-11-24T01:48:19;93.05;;;40.50;;
62687;SDS011;48752;51.056;17.056;2022-11-24T01:50:48;104.47;;;40.50;;
62687;SDS011;48752;51.056;17.056;2022-11-24T01:53:17;105.38;;;41.17;;
62687;SDS011;48752;51.056;17.056;2022-11-24T01:55:44;98.43;;;41.47;;
62687;SDS011;48752;51.056;17.056;2022-11-24T01:58:17;89.05;;;37.60;;
62687;SDS011;48752;51.056;17.056;2022-11-24T02:00:46;80.18;;;38.70;;
62687;SDS011;48752;51.056;17.056;2022-11-24T02:03:12;93.80;;;38.83;;
62687;SDS011;48752;51.056;17.056;2022-11-24T02:05:42;89.72;;;37.22;;
62687;SDS011;48752;51.056;17.056;2022-11-24T02:08:20;91.07;;;38.22;;
62687;SDS011;48752;51.056;17.056;2022-11-24T02:10:49;83.20;;;36.85;;
62687;SDS011;48752;51.056;17.056;2022-11-24T02:13:15;85.50;;;36.38;;
62687;SDS011;48752;51.056;17.056;2022-11-24T02:15:41;78.55;;;34.90;;
62687;SDS011;48752;51.056;17.056;2022-11-24T02:18:06;93.70;;;40.83;;
62687;SDS011;48752;51.056;17.056;2022-11-24T02:20:32;89.75;;;37.25;;
62687;SDS011;48752;51.056;17.056;2022-11-24T02:25:41;96.68;;;39.95;;
62687;SDS011;48752;51.056;17.056;2022-11-24T02:28:13;84.47;;;37.80;;
62687;SDS011;48752;51.056;17.056;2022-11-24T02:30:41;92.07;;;39.60;;
62687;SDS011;48752;51.056;17.056;2022-11-24T02:33:06;88.97;;;38.30;;
62687;SDS011;48752;51.056;17.056;2022-11-24T02:35:32;85.63;;;37.60;;
62687;SDS011;48752;51.056;17.056;2022-11-24T02:37:58;91.57;;;39.60;;
62687;SDS011;48752;51.056;17.056;2022-11-24T02:40:26;89.00;;;36.88;;
62687;SDS011;48752;51.056;17.056;2022-11-24T02:42:56;85.25;;;39.00;;
62687;SDS011;48752;51.056;17.056;2022-11-24T02:45:23;83.50;;;37.30;;
62687;SDS011;48752;51.056;17.056;2022-11-24T02:47:48;87.15;;;38.92;;
62687;SDS011;48752;51.056;17.056;2022-11-24T02:50:14;81.97;;;36.42;;
62687;SDS011;48752;51.056;17.056;2022-11-24T02:52:39;85.10;;;36.65;;
62687;SDS011;48752;51.056;17.056;2022-11-24T02:55:05;82.10;;;37.58;;
62687;SDS011;48752;51.056;17.056;2022-11-24T02:57:30;82.20;;;35.67;;
62687;SDS011;48752;51.056;17.056;2022-11-24T02:59:56;80.38;;;35.85;;
62687;SDS011;48752;51.056;17.056;2022-11-24T03:02:21;85.65;;;35.05;;
62687;SDS011;48752;51.056;17.056;2022-11-24T03:04:47;86.90;;;39.28;;
62687;SDS011;48752;51.056;17.056;2022-11-24T03:07:12;95.35;;;39.85;;
62687;SDS011;48752;51.056;17.056;2022-11-24T03:09:38;97.95;;;40.65;;
62687;SDS011;48752;51.056;17.056;2022-11-24T03:12:04;106.88;;;43.08;;
62687;SDS011;48752;51.056;17.056;2022-11-24T03:14:29;89.10;;;40.10;;
62687;SDS011;48752;51.056;17.056;2022-11-24T03:16:54;92.80;;;41.00;;
62687;SDS011;48752;51.056;17.056;2022-11-24T03:19:20;103.57;;;42.35;;
62687;SDS011;48752;51.056;17.056;2022-11-24T03:21:45;94.93;;;39.47;;
62687;SDS011;48752;51.056;17.056;2022-11-24T03:24:10;91.25;;;41.10;;
62687;SDS011;48752;51.056;17.056;2022-11-24T03:26:36;91.18;;;40.17;;
62687;SDS011;48752;51.056;17.056;2022-11-24T03:29:01;88.93;;;41.63;;
62687;SDS011;48752;51.056;17.056;2022-11-24T03:31:26;92.18;;;40.83;;
62687;SDS011;48752;51.056;17.056;2022-11-24T03:33:52;87.93;;;38.47;;
62687;SDS011;48752;51.056;17.056;2022-11-24T03:36:17;98.60;;;40.30;;
62687;SDS011;48752;51.056;17.056;2022-11-24T03:38:43;91.78;;;38.75;;
62687;SDS011;48752;51.056;17.056;2022-11-24T03:41:08;96.80;;;38.38;;
62687;SDS011;48752;51.056;17.056;2022-11-24T03:43:34;93.68;;;41.55;;
62687;SDS011;48752;51.056;17.056;2022-11-24T03:45:59;100.38;;;40.15;;
62687;SDS011;48752;51.056;17.056;2022-11-24T03:48:25;86.03;;;37.60;;
62687;SDS011;48752;51.056;17.056;2022-11-24T03:50:54;85.82;;;40.20;;
62687;SDS011;48752;51.056;17.056;2022-11-24T03:53:21;93.57;;;39.53;;
62687;SDS011;48752;51.056;17.056;2022-11-24T03:55:47;95.05;;;41.83;;
62687;SDS011;48752;51.056;17.056;2022-11-24T03:58:13;91.88;;;39.85;;
62687;SDS011;48752;51.056;17.056;2022-11-24T04:00:38;84.00;;;38.42;;
62687;SDS011;48752;51.056;17.056;2022-11-24T04:03:03;86.13;;;38.78;;
62687;SDS011;48752;51.056;17.056;2022-11-24T04:05:29;79.20;;;36.03;;
62687;SDS011;48752;51.056;17.056;2022-11-24T04:07:55;84.07;;;37.65;;
62687;SDS011;48752;51.056;17.056;2022-11-24T04:10:21;95.90;;;38.40;;
62687;SDS011;48752;51.056;17.056;2022-11-24T04:12:47;89.22;;;38.05;;
62687;SDS011;48752;51.056;17.056;2022-11-24T04:15:16;82.13;;;39.00;;
62687;SDS011;48752;51.056;17.056;2022-11-24T04:17:43;88.50;;;38.58;;
62687;SDS011;48752;51.056;17.056;2022-11-24T04:20:09;83.18;;;37.53;;
62687;SDS011;48752;51.056;17.056;2022-11-24T04:22:35;89.18;;;36.17;;
62687;SDS011;48752;51.056;17.056;2022-11-24T04:25:01;84.28;;;37.75;;
62687;SDS011;48752;51.056;17.056;2022-11-24T04:27:26;90.07;;;40.03;;
62687;SDS011;48752;51.056;17.056;2022-11-24T04:29:52;90.20;;;38.92;;
62687;SDS011;48752;51.056;17.056;2022-11-24T04:32:18;87.93;;;39.90;;
62687;SDS011;48752;51.056;17.056;2022-11-24T04:34:43;128.80;;;53.17;;
62687;SDS011;48752;51.056;17.056;2022-11-24T04:37:09;109.35;;;47.92;;
62687;SDS011;48752;51.056;17.056;2022-11-24T04:39:34;86.28;;;39.30;;
62687;SDS011;48752;51.056;17.056;2022-11-24T04:41:59;85.70;;;38.88;;
62687;SDS011;48752;51.056;17.056;2022-11-24T04:44:25;79.75;;;39.00;;
62687;SDS011;48752;51.056;17.056;2022-11-24T04:46:50;80.75;;;38.38;;
62687;SDS011;48752;51.056;17.056;2022-11-24T04:49:15;83.78;;;38.88;;
62687;SDS011;48752;51.056;17.056;2022-11-24T04:51:41;84.95;;;38.08;;
62687;SDS011;48752;51.056;17.056;2022-11-24T04:54:08;83.75;;;37.72;;
62687;SDS011;48752;51.056;17.056;2022-11-24T04:56:34;81.22;;;37.13;;
62687;SDS011;48752;51.056;17.056;2022-11-24T04:59:01;83.07;;;37.63;;
62687;SDS011;48752;51.056;17.056;2022-11-24T05:01:28;81.78;;;36.33;;
62687;SDS011;48752;51.056;17.056;2022-11-24T05:03:54;80.45;;;37.47;;
62687;SDS011;48752;51.056;17.056;2022-11-24T05:06:20;83.00;;;36.65;;
62687;SDS011;48752;51.056;17.056;2022-11-24T05:08:46;81.43;;;34.60;;
62687;SDS011;48752;51.056;17.056;2022-11-24T05:11:14;83.22;;;37.80;;
62687;SDS011;48752;51.056;17.056;2022-11-24T05:13:41;85.10;;;37.33;;
62687;SDS011;48752;51.056;17.056;2022-11-24T05:16:08;89.60;;;38.15;;
62687;SDS011;48752;51.056;17.056;2022-11-24T05:18:34;89.00;;;38.97;;
62687;SDS011;48752;51.056;17.056;2022-11-24T05:21:00;96.75;;;39.70;;
62687;SDS011;48752;51.056;17.056;2022-11-24T05:23:27;88.63;;;37.58;;
62687;SDS011;48752;51.056;17.056;2022-11-24T05:25:53;85.40;;;36.80;;
62687;SDS011;48752;51.056;17.056;2022-11-24T05:28:19;90.47;;;36.28;;
62687;SDS011;48752;51.056;17.056;2022-11-24T05:30:47;80.60;;;36.45;;
62687;SDS011;48752;51.056;17.056;2022-11-24T05:33:15;80.35;;;36.70;;
62687;SDS011;48752;51.056;17.056;2022-11-24T05:35:44;80.05;;;36.17;;
62687;SDS011;48752;51.056;17.056;2022-11-24T05:38:11;85.85;;;36.58;;
62687;SDS011;48752;51.056;17.056;2022-11-24T05:40:37;92.20;;;38.70;;
62687;SDS011;48752;51.056;17.056;2022-11-24T05:43:04;90.47;;;40.22;;
62687;SDS011;48752;51.056;17.056;2022-11-24T05:45:29;92.68;;;37.80;;
62687;SDS011;48752;51.056;17.056;2022-11-24T05:48:01;88.03;;;34.78;;
62687;SDS011;48752;51.056;17.056;2022-11-24T05:50:29;94.10;;;41.08;;
62687;SDS011;48752;51.056;17.056;2022-11-24T05:53:00;94.68;;;36.92;;
62687;SDS011;48752;51.056;17.056;2022-11-24T05:57:58;81.95;;;35.33;;
62687;SDS011;48752;51.056;17.056;2022-11-24T06:00:37;87.78;;;36.42;;
62687;SDS011;48752;51.056;17.056;2022-11-24T06:03:03;88.43;;;39.72;;
62687;SDS011;48752;51.056;17.056;2022-11-24T06:05:30;92.40;;;41.10;;
62687;SDS011;48752;51.056;17.056;2022-11-24T06:07:57;93.60;;;40.58;;
62687;SDS011;48752;51.056;17.056;2022-11-24T06:10:24;108.95;;;46.88;;
62687;SDS011;48752;51.056;17.056;2022-11-24T06:12:50;98.13;;;42.03;;
62687;SDS011;48752;51.056;17.056;2022-11-24T06:15:16;88.68;;;39.67;;
62687;SDS011;48752;51.056;17.056;2022-11-24T06:17:43;90.03;;;38.92;;
62687;SDS011;48752;51.056;17.056;2022-11-24T06:20:17;91.10;;;38.92;;
62687;SDS011;48752;51.056;17.056;2022-11-24T06:22:43;79.95;;;36.90;;
62687;SDS011;48752;51.056;17.056;2022-11-24T06:25:08;87.90;;;37.42;;
62687;SDS011;48752;51.056;17.056;2022-11-24T06:27:34;89.28;;;36.40;;
62687;SDS011;48752;51.056;17.056;2022-11-24T06:29:59;82.38;;;37.05;;
62687;SDS011;48752;51.056;17.056;2022-11-24T06:32:25;87.32;;;38.55;;
62687;SDS011;48752;51.056;17.056;2022-11-24T06:34:50;89.57;;;39.20;;
62687;SDS011;48752;51.056;17.056;2022-11-24T06:37:16;95.95;;;39.90;;
62687;SDS011;48752;51.056;17.056;2022-11-24T06:39:41;82.43;;;37.13;;
62687;SDS011;48752;51.056;17.056;2022-11-24T06:42:07;90.40;;;39.88;;
62687;SDS011;48752;51.056;17.056;2022-11-24T06:44:33;100.22;;;45.38;;
62687;SDS011;48752;51.056;17.056;2022-11-24T06:46:58;101.70;;;43.33;;
62687;SDS011;48752;51.056;17.056;2022-11-24T06:49:23;106.40;;;44.47;;
62687;SDS011;48752;51.056;17.056;2022-11-24T06:51:49;92.65;;;42.15;;
62687;SDS011;48752;51.056;17.056;2022-11-24T06:54:15;108.22;;;48.15;;
62687;SDS011;48752;51.056;17.056;2022-11-24T06:56:45;103.15;;;45.38;;
62687;SDS011;48752;51.056;17.056;2022-11-24T06:59:19;106.32;;;48.33;;
62687;SDS011;48752;51.056;17.056;2022-11-24T07:01:45;101.20;;;42.90;;
62687;SDS011;48752;51.056;17.056;2022-11-24T07:04:11;97.75;;;44.85;;
62687;SDS011;48752;51.056;17.056;2022-11-24T07:06:36;103.43;;;43.63;;
62687;SDS011;48752;51.056;17.056;2022-11-24T07:09:04;92.82;;;40.65;;
62687;SDS011;48752;51.056;17.056;2022-11-24T07:11:29;92.40;;;40.15;;
62687;SDS011;48752;51.056;17.056;2022-11-24T07:13:56;101.15;;;41.10;;
62687;SDS011;48752;51.056;17.056;2022-11-24T07:16:22;94.00;;;42.88;;
62687;SDS011;48752;51.056;17.056;2022-11-24T07:18:50;93.90;;;41.05;;
62687;SDS011;48752;51.056;17.056;2022-11-24T07:21:16;87.03;;;40.13;;
62687;SDS011;48752;51.056;17.056;2022-11-24T07:23:41;88.57;;;38.85;;
62687;SDS011;48752;51.056;17.056;2022-11-24T07:26:07;90.78;;;40.60;;
62687;SDS011;48752;51.056;17.056;2022-11-24T07:28:33;97.55;;;42.60;;
62687;SDS011;48752;51.056;17.056;2022-11-24T07:31:04;90.30;;;41.83;;
62687;SDS011;48752;51.056;17.056;2022-11-24T07:33:30;88.88;;;42.60;;
62687;SDS011;48752;51.056;17.056;2022-11-24T07:35:58;94.50;;;40.92;;
62687;SDS011;48752;51.056;17.056;2022-11-24T07:38:24;102.20;;;41.20;;
62687;SDS011;48752;51.056;17.056;2022-11-24T07:40:49;115.50;;;40.88;;
62687;SDS011;48752;51.056;17.056;2022-11-24T07:43:14;85.97;;;39.70;;
62687;SDS011;48752;51.056;17.056;2022-11-24T07:45:40;89.65;;;37.72;;
62687;SDS011;48752;51.056;17.056;2022-11-24T07:48:05;91.82;;;40.47;;
62687;SDS011;48752;51.056;17.056;2022-11-24T07:50:31;78.85;;;36.67;;
62687;SDS011;48752;51.056;17.056;2022-11-24T07:52:59;87.63;;;38.78;;
62687;SDS011;48752;51.056;17.056;2022-11-24T07:55:26;82.60;;;37.78;;
62687;SDS011;48752;51.056;17.056;2022-11-24T07:57:51;85.45;;;37.72;;
62687;SDS011;48752;51.056;17.056;2022-11-24T08:00:16;118.55;;;40.38;;
62687;SDS011;48752;51.056;17.056;2022-11-24T08:02:42;89.57;;;38.17;;
62687;SDS011;48752;51.056;17.056;2022-11-24T08:05:07;94.95;;;41.08;;
62687;SDS011;48752;51.056;17.056;2022-11-24T08:07:33;93.03;;;40.80;;
62687;SDS011;48752;51.056;17.056;2022-11-24T08:09:58;108.50;;;40.05;;
62687;SDS011;48752;51.056;17.056;2022-11-24T08:12:23;97.60;;;38.88;;
62687;SDS011;48752;51.056;17.056;2022-11-24T08:14:49;107.32;;;42.53;;
62687;SDS011;48752;51.056;17.056;2022-11-24T08:17:18;101.95;;;44.17;;
62687;SDS011;48752;51.056;17.056;2022-11-24T08:19:43;103.47;;;44.17;;
62687;SDS011;48752;51.056;17.056;2022-11-24T08:22:09;101.82;;;45.00;;
62687;SDS011;48752;51.056;17.056;2022-11-24T08:24:34;92.70;;;44.70;;
62687;SDS011;48752;51.056;17.056;2022-11-24T08:27:01;99.47;;;40.55;;
62687;SDS011;48752;51.056;17.056;2022-11-24T08:29:28;87.95;;;40.95;;
62687;SDS011;48752;51.056;17.056;2022-11-24T08:31:57;86.22;;;39.97;;
62687;SDS011;48752;51.056;17.056;2022-11-24T08:34:23;90.88;;;39.55;;
62687;SDS011;48752;51.056;17.056;2022-11-24T08:36:50;92.55;;;39.85;;
62687;SDS011;48752;51.056;17.056;2022-11-24T08:39:16;85.03;;;40.58;;
62687;SDS011;48752;51.056;17.056;2022-11-24T08:41:50;93.95;;;41.78;;
62687;SDS011;48752;51.056;17.056;2022-11-24T08:44:15;92.93;;;39.20;;
62687;SDS011;48752;51.056;17.056;2022-11-24T08:46:42;83.22;;;38.45;;
62687;SDS011;48752;51.056;17.056;2022-11-24T08:49:10;86.50;;;39.47;;
62687;SDS011;48752;51.056;17.056;2022-11-24T08:51:39;78.20;;;36.08;;
62687;SDS011;48752;51.056;17.056;2022-11-24T08:54:05;71.47;;;33.75;;
62687;SDS011;48752;51.056;17.056;2022-11-24T08:56:31;77.78;;;34.83;;
62687;SDS011;48752;51.056;17.056;2022-11-24T08:58:59;71.28;;;33.92;;
62687;SDS011;48752;51.056;17.056;2022-11-24T09:01:24;76.68;;;36.05;;
62687;SDS011;48752;51.056;17.056;2022-11-24T09:03:50;72.70;;;32.53;;
62687;SDS011;48752;51.056;17.056;2022-11-24T09:06:17;65.07;;;31.50;;
62687;SDS011;48752;51.056;17.056;2022-11-24T09:08:46;64.00;;;32.28;;
62687;SDS011;48752;51.056;17.056;2022-11-24T09:11:13;64.88;;;29.50;;
62687;SDS011;48752;51.056;17.056;2022-11-24T09:13:41;67.78;;;30.05;;
62687;SDS011;48752;51.056;17.056;2022-11-24T09:16:11;72.00;;;32.30;;
62687;SDS011;48752;51.056;17.056;2022-11-24T09:18:39;62.05;;;30.67;;
62687;SDS011;48752;51.056;17.056;2022-11-24T09:21:12;69.82;;;32.22;;
62687;SDS011;48752;51.056;17.056;2022-11-24T09:23:39;61.08;;;29.45;;
62687;SDS011;48752;51.056;17.056;2022-11-24T09:26:07;63.20;;;29.55;;
62687;SDS011;48752;51.056;17.056;2022-11-24T09:28:34;76.95;;;32.17;;
62687;SDS011;48752;51.056;17.056;2022-11-24T09:31:05;76.05;;;32.20;;
62687;SDS011;48752;51.056;17.056;2022-11-24T09:33:33;78.57;;;31.40;;
62687;SDS011;48752;51.056;17.056;2022-11-24T09:36:00;75.50;;;31.63;;
62687;SDS011;48752;51.056;17.056;2022-11-24T09:38:34;71.88;;;29.13;;
62687;SDS011;48752;51.056;17.056;2022-11-24T09:41:20;74.20;;;29.50;;
62687;SDS011;48752;51.056;17.056;2022-11-24T09:49:21;69.32;;;30.00;;
62687;SDS011;48752;51.056;17.056;2022-11-24T09:51:55;79.72;;;31.20;;
62687;SDS011;48752;51.056;17.056;2022-11-24T09:54:22;73.03;;;31.50;;
62687;SDS011;48752;51.056;17.056;2022-11-24T09:56:51;78.38;;;31.73;;
62687;SDS011;48752;51.056;17.056;2022-11-24T09:59:20;75.85;;;32.30;;
62687;SDS011;48752;51.056;17.056;2022-11-24T10:01:48;69.38;;;30.85;;
62687;SDS011;48752;51.056;17.056;2022-11-24T10:06:45;72.43;;;33.83;;
62687;SDS011;48752;51.056;17.056;2022-11-24T10:14:46;84.57;;;36.08;;
62687;SDS011;48752;51.056;17.056;2022-11-24T10:31:54;83.95;;;36.25;;
62687;SDS011;48752;51.056;17.056;2022-11-24T10:44:37;92.47;;;35.42;;
62687;SDS011;48752;51.056;17.056;2022-11-24T10:47:07;87.03;;;35.90;;
62687;SDS011;48752;51.056;17.056;2022-11-24T10:49:55;86.47;;;36.45;;
62687;SDS011;48752;51.056;17.056;2022-11-24T10:52:28;83.57;;;38.05;;
62687;SDS011;48752;51.056;17.056;2022-11-24T10:55:10;81.28;;;34.42;;
62687;SDS011;48752;51.056;17.056;2022-11-24T10:57:38;86.13;;;36.25;;
62687;SDS011;48752;51.056;17.056;2022-11-24T11:02:48;80.53;;;34.75;;
62687;SDS011;48752;51.056;17.056;2022-11-24T11:08:37;78.13;;;33.67;;
62687;SDS011;48752;51.056;17.056;2022-11-24T11:11:33;75.75;;;34.75;;
62687;SDS011;48752;51.056;17.056;2022-11-24T11:14:04;76.20;;;33.70;;
62687;SDS011;48752;51.056;17.056;2022-11-24T11:19:48;82.35;;;33.97;;
62687;SDS011;48752;51.056;17.056;2022-11-24T11:22:29;83.25;;;35.58;;
62687;SDS011;48752;51.056;17.056;2022-11-24T11:25:03;77.57;;;34.13;;
62687;SDS011;48752;51.056;17.056;2022-11-24T11:27:49;75.80;;;29.60;;
62687;SDS011;48752;51.056;17.056;2022-11-24T11:32:55;76.53;;;31.13;;
62687;SDS011;48752;51.056;17.056;2022-11-24T11:35:24;77.97;;;32.28;;
62687;SDS011;48752;51.056;17.056;2022-11-24T11:37:52;69.93;;;31.50;;
62687;SDS011;48752;51.056;17.056;2022-11-24T11:40:28;68.25;;;30.67;;
62687;SDS011;48752;51.056;17.056;2022-11-24T11:42:59;68.53;;;30.40;;
62687;SDS011;48752;51.056;17.056;2022-11-24T11:45:36;68.45;;;30.05;;
62687;SDS011;48752;51.056;17.056;2022-11-24T11:50:53;74.82;;;30.80;;
62687;SDS011;48752;51.056;17.056;2022-11-24T11:53:44;79.75;;;31.10;;
62687;SDS011;48752;51.056;17.056;2022-11-24T12:10:47;61.90;;;30.10;;
62687;SDS011;48752;51.056;17.056;2022-11-24T12:16:10;66.28;;;30.80;;
62687;SDS011;48752;51.056;17.056;2022-11-24T12:18:48;71.30;;;31.33;;
62687;SDS011;48752;51.056;17.056;2022-11-24T12:21:47;84.82;;;33.33;;
62687;SDS011;48752;51.056;17.056;2022-11-24T12:30:12;64.55;;;30.77;;
62687;SDS011;48752;51.056;17.056;2022-11-24T12:43:58;71.30;;;33.53;;
62687;SDS011;48752;51.056;17.056;2022-11-24T12:49:38;76.85;;;32.80;;
62687;SDS011;48752;51.056;17.056;2022-11-24T12:53:01;122.70;;;40.83;;
62687;SDS011;48752;51.056;17.056;2022-11-24T12:55:20;94.93;;;34.55;;
62687;SDS011;48752;51.056;17.056;2022-11-24T12:58:10;80.85;;;34.63;;
62687;SDS011;48752;51.056;17.056;2022-11-24T13:09:25;75.63;;;34.55;;
62687;SDS011;48752;51.056;17.056;2022-11-24T13:11:52;64.85;;;32.90;;
62687;SDS011;48752;51.056;17.056;2022-11-24T13:14:43;74.97;;;33.10;;
62687;SDS011;48752;51.056;17.056;2022-11-24T13:17:28;77.28;;;33.40;;
62687;SDS011;48752;51.056;17.056;2022-11-24T13:22:49;77.50;;;36.40;;
62687;SDS011;48752;51.056;17.056;2022-11-24T13:25:26;77.32;;;33.83;;
62687;SDS011;48752;51.056;17.056;2022-11-24T13:28:02;71.88;;;34.47;;
62687;SDS011;48752;51.056;17.056;2022-11-24T13:35:40;81.88;;;35.25;;
62687;SDS011;48752;51.056;17.056;2022-11-24T13:41:09;68.38;;;33.88;;
62687;SDS011;48752;51.056;17.056;2022-11-24T13:49:50;74.13;;;35.65;;
62687;SDS011;48752;51.056;17.056;2022-11-24T13:55:00;86.45;;;37.03;;
62687;SDS011;48752;51.056;17.056;2022-11-24T13:57:47;89.72;;;38.92;;
62687;SDS011;48752;51.056;17.056;2022-11-24T14:02:54;78.18;;;36.38;;
62687;SDS011;48752;51.056;17.056;2022-11-24T14:05:38;84.63;;;37.60;;
62687;SDS011;48752;51.056;17.056;2022-11-24T14:08:05;88.57;;;40.22;;
62687;SDS011;48752;51.056;17.056;2022-11-24T14:10:36;100.78;;;42.05;;
62687;SDS011;48752;51.056;17.056;2022-11-24T14:18:25;92.95;;;41.45;;
62687;SDS011;48752;51.056;17.056;2022-11-24T14:20:53;93.65;;;40.55;;
62687;SDS011;48752;51.056;17.056;2022-11-24T14:23:19;90.72;;;40.80;;
62687;SDS011;48752;51.056;17.056;2022-11-24T14:25:45;92.70;;;43.13;;
62687;SDS011;48752;51.056;17.056;2022-11-24T14:28:23;90.72;;;39.65;;
62687;SDS011;48752;51.056;17.056;2022-11-24T14:30:51;99.80;;;42.90;;
62687;SDS011;48752;51.056;17.056;2022-11-24T14:33:45;96.47;;;42.15;;
62687;SDS011;48752;51.056;17.056;2022-11-24T14:36:14;93.47;;;41.95;;
62687;SDS011;48752;51.056;17.056;2022-11-24T14:38:40;98.60;;;42.90;;
62687;SDS011;48752;51.056;17.056;2022-11-24T14:41:13;81.43;;;37.58;;
62687;SDS011;48752;51.056;17.056;2022-11-24T14:43:46;101.35;;;40.97;;
62687;SDS011;48752;51.056;17.056;2022-11-24T14:46:22;86.40;;;40.50;;
62687;SDS011;48752;51.056;17.056;2022-11-24T14:48:49;97.35;;;42.72;;
62687;SDS011;48752;51.056;17.056;2022-11-24T14:51:20;91.50;;;42.78;;
62687;SDS011;48752;51.056;17.056;2022-11-24T14:54:17;95.10;;;42.67;;
62687;SDS011;48752;51.056;17.056;2022-11-24T14:57:00;91.65;;;43.45;;
62687;SDS011;48752;51.056;17.056;2022-11-24T14:59:28;84.05;;;40.22;;
62687;SDS011;48752;51.056;17.056;2022-11-24T15:01:56;93.13;;;41.72;;
62687;SDS011;48752;51.056;17.056;2022-11-24T15:04:23;97.20;;;42.42;;
62687;SDS011;48752;51.056;17.056;2022-11-24T15:09:51;110.88;;;45.30;;
62687;SDS011;48752;51.056;17.056;2022-11-24T15:12:25;108.43;;;49.78;;
62687;SDS011;48752;51.056;17.056;2022-11-24T15:14:54;109.78;;;47.67;;
62687;SDS011;48752;51.056;17.056;2022-11-24T15:17:46;110.53;;;46.80;;
62687;SDS011;48752;51.056;17.056;2022-11-24T15:20:25;116.13;;;50.23;;
62687;SDS011;48752;51.056;17.056;2022-11-24T15:23:21;113.03;;;47.42;;
62687;SDS011;48752;51.056;17.056;2022-11-24T15:25:55;112.32;;;47.92;;
62687;SDS011;48752;51.056;17.056;2022-11-24T15:28:28;101.53;;;46.58;;
62687;SDS011;48752;51.056;17.056;2022-11-24T15:30:58;112.15;;;46.53;;
62687;SDS011;48752;51.056;17.056;2022-11-24T15:33:25;109.07;;;46.50;;
62687;SDS011;48752;51.056;17.056;2022-11-24T15:35:52;104.05;;;48.03;;
62687;SDS011;48752;51.056;17.056;2022-11-24T15:38:25;101.03;;;46.38;;
62687;SDS011;48752;51.056;17.056;2022-11-24T15:40:59;90.82;;;43.45;;
62687;SDS011;48752;51.056;17.056;2022-11-24T15:43:27;94.25;;;45.08;;
62687;SDS011;48752;51.056;17.056;2022-11-24T15:45:53;98.15;;;42.95;;
62687;SDS011;48752;51.056;17.056;2022-11-24T15:48:19;99.35;;;44.95;;
62687;SDS011;48752;51.056;17.056;2022-11-24T15:50:45;95.38;;;43.25;;
62687;SDS011;48752;51.056;17.056;2022-11-24T15:53:16;99.75;;;44.78;;
62687;SDS011;48752;51.056;17.056;2022-11-24T15:55:43;96.38;;;44.47;;
62687;SDS011;48752;51.056;17.056;2022-11-24T15:58:10;90.22;;;43.15;;
62687;SDS011;48752;51.056;17.056;2022-11-24T16:00:37;134.63;;;49.53;;
62687;SDS011;48752;51.056;17.056;2022-11-24T16:03:02;125.82;;;47.13;;
62687;SDS011;48752;51.056;17.056;2022-11-24T16:05:28;107.60;;;44.65;;
62687;SDS011;48752;51.056;17.056;2022-11-24T16:07:53;135.13;;;51.13;;
62687;SDS011;48752;51.056;17.056;2022-11-24T16:10:25;129.63;;;47.75;;
62687;SDS011;48752;51.056;17.056;2022-11-24T16:12:53;142.95;;;50.05;;
62687;SDS011;48752;51.056;17.056;2022-11-24T16:15:19;105.63;;;49.42;;
62687;SDS011;48752;51.056;17.056;2022-11-24T16:17:44;111.43;;;46.70;;
62687;SDS011;48752;51.056;17.056;2022-11-24T16:20:10;106.22;;;49.17;;
62687;SDS011;48752;51.056;17.056;2022-11-24T16:22:35;97.20;;;44.58;;
62687;SDS011;48752;51.056;17.056;2022-11-24T16:25:01;102.38;;;46.67;;
62687;SDS011;48752;51.056;17.056;2022-11-24T16:27:28;105.43;;;45.22;;
62687;SDS011;48752;51.056;17.056;2022-11-24T16:29:53;94.63;;;44.47;;